createdAt,value
2023-03-05T00:06:52.596Z,2.79
2023-03-05T00:26:54.055Z,2.87
2023-03-05T00:46:55.723Z,2.85
2023-03-05T01:06:57.246Z,2.67
2023-03-05T01:26:59.022Z,2.55
2023-03-05T01:47:00.499Z,2.64
2023-03-05T02:07:02.339Z,2.61
2023-03-05T02:27:03.806Z,2.66
2023-03-05T02:47:08.394Z,2.65
2023-03-05T03:07:10.695Z,2.68
2023-03-05T03:27:12.212Z,2.64
2023-03-05T03:47:14.040Z,2.60
2023-03-05T04:07:15.571Z,2.61
2023-03-05T04:27:17.047Z,2.58
2023-03-05T04:47:18.569Z,2.57
2023-03-05T05:07:20.196Z,2.60
2023-03-05T05:27:22.087Z,2.53
2023-03-05T05:47:24.006Z,2.59
2023-03-05T06:07:25.892Z,2.74
2023-03-05T06:27:29.152Z,2.77
2023-03-05T06:47:30.768Z,2.93
2023-03-05T07:07:32.300Z,2.95
2023-03-05T07:27:34.288Z,3.02
2023-03-05T07:47:35.905Z,3.04
2023-03-05T08:07:38.593Z,3.19
2023-03-05T08:27:40.514Z,3.48
2023-03-05T08:47:44.088Z,3.40
2023-03-05T09:07:45.742Z,3.35
2023-03-05T09:27:47.378Z,3.84
2023-03-05T09:47:49.938Z,4.41
2023-03-05T10:08:09.820Z,4.48
2023-03-05T10:28:29.729Z,4.88
2023-03-05T10:48:49.560Z,5.62
2023-03-05T11:09:10.029Z,4.86
2023-03-05T11:29:30.016Z,4.58
2023-03-05T11:49:50.183Z,4.30
2023-03-05T12:09:52.708Z,4.68
2023-03-05T12:29:54.648Z,4.39
2023-03-05T12:49:56.046Z,4.35
2023-03-05T13:09:57.890Z,4.30
2023-03-05T13:29:59.297Z,4.05
2023-03-05T13:50:00.865Z,3.82
2023-03-05T14:10:02.500Z,3.99
2023-03-05T14:30:04.057Z,3.74
2023-03-05T14:50:08.319Z,3.80
2023-03-05T15:10:09.853Z,3.75
2023-03-05T15:30:11.353Z,3.88
2023-03-05T15:50:13.179Z,3.84
2023-03-05T16:10:17.778Z,3.77
2023-03-05T16:30:19.303Z,3.70
2023-03-05T16:50:20.988Z,3.61
2023-03-05T17:10:22.654Z,3.64
2023-03-05T17:30:24.134Z,3.57
2023-03-05T17:50:26.726Z,3.47
2023-03-05T18:10:28.273Z,3.38
2023-03-05T18:30:29.930Z,3.31
2023-03-05T18:50:31.580Z,3.35
2023-03-05T19:10:33.212Z,3.41
2023-03-05T19:30:34.804Z,3.42
2023-03-05T20:32:09.760Z,3.75
2023-03-05T20:52:14.553Z,3.67
2023-03-05T21:22:55.677Z,3.68
2023-03-05T21:42:57.700Z,3.55
2023-03-05T22:02:59.603Z,3.67
2023-03-05T22:23:01.690Z,3.78
2023-03-05T22:43:03.645Z,3.76
2023-03-05T23:03:05.460Z,3.77
2023-03-05T23:23:07.382Z,3.81
2023-03-05T23:43:28.379Z,3.90
